Time;durP1;ratioP1;P1;durP2;ratioP2;P2;SDS_P1;SDS_P2;PMS_P1;PMS_P2;Temp;Humidity;BMP_temperature;BMP_pressure;BME280_temperature;BME280_humidity;BME280_pressure;Samples;Min_cycle;Max_cycle;Signal;HPM_P1;HPM_P2
2022/04/24 00:00:46;;;;;;;0.20;0.10;;;11.40;99.90;;;;;;25505065;23;20195;-73
2022/04/24 00:10:50;;;;;;;0.20;0.10;;;11.70;99.90;;;;;;25528833;23;20202;-72
2022/04/24 00:20:55;;;;;;;0.20;0.10;;;11.70;99.90;;;;;;25529038;23;20202;-73
2022/04/24 00:30:59;;;;;;;0.20;0.10;;;11.60;99.90;;;;;;25531553;23;20187;-75
2022/04/24 00:41:05;;;;;;;0.20;0.10;;;11.50;99.90;;;;;;25528221;23;20190;-70
2022/04/24 00:51:09;;;;;;;0.20;0.10;;;11.40;99.90;;;;;;25527692;23;20171;-72
2022/04/24 01:01:14;;;;;;;0.20;0.10;;;11.50;99.90;;;;;;25502478;23;20198;-73
2022/04/24 01:11:18;;;;;;;0.20;0.10;;;11.60;99.90;;;;;;25528188;23;20206;-72
2022/04/24 01:21:24;;;;;;;0.20;0.00;;;11.50;99.90;;;;;;25504693;23;20195;-73
2022/04/24 01:31:27;;;;;;;0.20;0.10;;;11.50;99.90;;;;;;25527262;23;20171;-71
2022/04/24 01:41:33;;;;;;;0.20;0.10;;;11.80;99.90;;;;;;25529508;23;20509;-70
2022/04/24 01:51:37;;;;;;;0.20;0.10;;;12.40;99.90;;;;;;25525336;23;20167;-70
2022/04/24 02:01:42;;;;;;;0.20;0.10;;;12.50;99.90;;;;;;25501159;23;20195;-74
2022/04/24 02:11:46;;;;;;;0.20;0.10;;;12.60;99.90;;;;;;25499941;23;20199;-72
2022/04/24 02:21:56;;;;;;;0.20;0.10;;;12.60;99.90;;;;;;25499795;23;20267;-72
2022/04/24 02:32:00;;;;;;;0.20;0.10;;;12.70;99.90;;;;;;25533046;23;20170;-71
2022/04/24 02:42:06;;;;;;;0.20;0.10;;;12.60;99.90;;;;;;25506896;23;20202;-72
2022/04/24 02:52:09;;;;;;;0.20;0.10;;;12.70;99.90;;;;;;25534283;23;20168;-71
2022/04/24 03:02:15;;;;;;;0.20;0.10;;;12.60;99.90;;;;;;25530737;23;20202;-70
2022/04/24 03:12:19;;;;;;;0.20;0.10;;;12.60;99.90;;;;;;25534590;23;20206;-69
2022/04/24 03:22:24;;;;;;;0.20;0.10;;;12.40;99.90;;;;;;25529850;23;20194;-70
2022/04/24 03:32:31;;;;;;;0.20;0.10;;;12.30;99.90;;;;;;25529963;23;20434;-69
2022/04/24 03:42:37;;;;;;;0.20;0.10;;;12.30;99.90;;;;;;25504230;23;20187;-68
2022/04/24 03:52:41;;;;;;;0.20;0.10;;;12.40;99.90;;;;;;25530415;23;20155;-70
2022/04/24 04:02:47;;;;;;;0.20;0.10;;;12.30;99.90;;;;;;25529387;23;20216;-76
2022/04/24 04:12:51;;;;;;;0.20;0.10;;;12.20;99.90;;;;;;25530927;23;20199;-76
2022/04/24 04:22:56;;;;;;;0.20;0.10;;;12.10;99.90;;;;;;25507374;23;20201;-75
2022/04/24 04:33:00;;;;;;;0.20;0.10;;;12.10;99.90;;;;;;25527832;23;20453;-73
2022/04/24 04:43:06;;;;;;;0.20;0.10;;;12.20;99.90;;;;;;25529932;23;20206;-71
2022/04/24 04:53:10;;;;;;;0.20;0.10;;;12.10;99.90;;;;;;25525330;23;20174;-72
2022/04/24 05:03:15;;;;;;;0.20;0.10;;;12.10;99.90;;;;;;25527876;23;20506;-71
2022/04/24 05:13:20;;;;;;;0.20;0.00;;;12.20;99.90;;;;;;25526569;23;20635;-72
2022/04/24 05:23:25;;;;;;;0.20;0.10;;;12.20;99.90;;;;;;25529331;23;20478;-72
2022/04/24 05:33:29;;;;;;;0.20;0.10;;;12.20;99.90;;;;;;25502470;23;20171;-71
2022/04/24 05:43:34;;;;;;;0.20;0.10;;;12.20;99.90;;;;;;25524347;23;20199;-75
2022/04/24 05:53:38;;;;;;;0.20;0.10;;;12.30;99.90;;;;;;25502022;23;20163;-75
2022/04/24 06:03:43;;;;;;;0.20;0.10;;;12.30;99.90;;;;;;25529391;23;20195;-74
2022/04/24 06:13:47;;;;;;;0.20;0.10;;;12.40;99.90;;;;;;25509084;23;20206;-74
2022/04/24 06:23:53;;;;;;;0.20;0.10;;;12.60;99.90;;;;;;25507584;23;20286;-73
2022/04/24 06:33:56;;;;;;;0.20;0.00;;;12.90;99.90;;;;;;25532877;23;20170;-73
2022/04/24 06:44:02;;;;;;;0.20;0.00;;;13.30;99.90;;;;;;25532867;23;20195;-70
2022/04/24 06:54:05;;;;;;;0.20;0.10;;;13.60;99.90;;;;;;25531223;23;20280;-71
2022/04/24 07:04:11;;;;;;;0.20;0.10;;;13.90;99.90;;;;;;25528349;23;20195;-75
2022/04/24 07:14:15;;;;;;;0.20;0.10;;;13.60;99.90;;;;;;25503285;23;20218;-74
2022/04/24 07:24:20;;;;;;;0.20;0.10;;;13.70;99.90;;;;;;25529148;23;20191;-71
2022/04/24 07:34:24;;;;;;;0.20;0.00;;;14.10;99.90;;;;;;25527330;23;20171;-74
2022/04/24 07:44:29;;;;;;;0.20;0.10;;;14.30;99.90;;;;;;25528795;23;20190;-72
2022/04/24 07:54:33;;;;;;;0.20;0.03;;;14.40;99.90;;;;;;25502296;23;20167;-72
2022/04/24 08:04:38;;;;;;;0.20;0.00;;;14.80;99.90;;;;;;25498168;23;20209;-77
2022/04/24 08:14:42;;;;;;;0.20;0.00;;;15.20;99.90;;;;;;25525282;23;20462;-73
2022/04/24 08:24:48;;;;;;;0.20;0.00;;;15.40;99.90;;;;;;25523373;23;20191;-74
2022/04/24 08:34:51;;;;;;;0.20;0.10;;;15.60;99.90;;;;;;25525901;23;20171;-74
2022/04/24 08:44:57;;;;;;;0.20;0.10;;;16.40;99.90;;;;;;25499116;23;20187;-74
2022/04/24 08:55:02;;;;;;;0.20;0.00;;;16.60;99.90;;;;;;25524054;23;20167;-77
2022/04/24 09:05:08;;;;;;;0.20;0.10;;;16.20;99.90;;;;;;25523894;23;20190;-74
2022/04/24 09:15:17;;;;;;;0.20;0.00;;;16.40;99.90;;;;;;25520869;23;20199;-75
2022/04/24 09:25:38;;;;;;;0.20;0.10;;;17.10;99.90;;;;;;25523836;23;20198;-74
2022/04/24 09:35:42;;;;;;;0.20;0.10;;;17.10;99.90;;;;;;25495570;23;20446;-73
2022/04/24 09:45:50;;;;;;;0.20;0.00;;;16.60;99.90;;;;;;25501877;23;20189;-73
2022/04/24 09:55:55;;;;;;;0.20;0.00;;;17.30;99.90;;;;;;25525712;23;20294;-73
2022/04/24 10:06:04;;;;;;;0.20;0.10;;;18.30;99.90;;;;;;25526295;23;20210;-74
2022/04/24 10:16:24;;;;;;;0.20;0.10;;;18.50;99.90;;;;;;25498399;23;20167;-74
2022/04/24 10:26:29;;;;;;;0.20;0.00;;;18.50;99.90;;;;;;25522374;23;20268;-73
2022/04/24 10:36:33;;;;;;;0.20;0.00;;;18.70;99.90;;;;;;25525969;23;20171;-75
2022/04/24 10:46:42;;;;;;;0.20;0.10;;;19.80;99.90;;;;;;25524966;23;20194;-75
2022/04/24 10:56:49;;;;;;;0.20;0.10;;;20.00;99.90;;;;;;25524859;23;20187;-74
2022/04/24 11:06:56;;;;;;;0.20;0.07;;;20.80;99.90;;;;;;25522500;23;20506;-78
2022/04/24 11:17:01;;;;;;;0.20;0.10;;;21.00;99.90;;;;;;25524753;23;20199;-76
2022/04/24 11:27:10;;;;;;;0.20;0.00;;;21.00;99.90;;;;;;25524182;23;20203;-71
2022/04/24 11:37:14;;;;;;;0.20;0.00;;;21.60;99.90;;;;;;25497670;23;20171;-72
2022/04/24 11:57:43;;;;;;;0.20;0.00;;;23.40;99.90;;;;;;25496032;23;20198;-72
2022/04/24 12:07:55;;;;;;;0.20;0.00;;;23.60;99.90;;;;;;25519796;23;20254;-71
2022/04/24 12:18:00;;;;;;;0.20;0.20;;;22.60;99.90;;;;;;25520221;23;20214;-74
2022/04/24 12:28:05;;;;;;;0.20;0.10;;;22.60;99.90;;;;;;25523062;23;20198;-72
2022/04/24 12:38:14;;;;;;;0.20;0.00;;;22.70;99.90;;;;;;25523789;23;20190;-73
2022/04/24 12:48:19;;;;;;;0.20;0.00;;;23.30;99.90;;;;;;25524792;23;20415;-73
2022/04/24 12:58:23;;;;;;;0.20;0.00;;;23.70;99.90;;;;;;25524982;23;20229;-73
2022/04/24 13:08:29;;;;;;;0.20;0.00;;;24.40;99.90;;;;;;25497179;23;20205;-74
2022/04/24 13:18:33;;;;;;;0.20;0.00;;;24.60;99.90;;;;;;25525122;23;20155;-77
2022/04/24 13:28:38;;;;;;;0.20;0.00;;;24.90;99.90;;;;;;25498265;23;20182;-72
2022/04/24 13:38:44;;;;;;;0.20;0.00;;;25.10;99.90;;;;;;25500089;23;20453;-72
2022/04/24 13:48:49;;;;;;;0.20;0.10;;;24.60;99.90;;;;;;25519705;23;20167;-75
2022/04/24 13:58:53;;;;;;;0.20;0.00;;;24.50;99.90;;;;;;25500085;23;20197;-72
2022/04/24 14:08:58;;;;;;;0.20;0.00;;;24.10;99.90;;;;;;25525210;23;20199;-71
2022/04/24 14:19:01;;;;;;;0.20;0.10;;;25.60;99.90;;;;;;25496109;23;20182;-74
2022/04/24 14:29:07;;;;;;;0.30;0.30;;;25.90;99.90;;;;;;25525044;23;20163;-73
2022/04/24 14:39:10;;;;;;;0.20;0.10;;;26.20;99.90;;;;;;25524254;23;20190;-74
2022/04/24 14:59:37;;;;;;;0.20;0.00;;;26.20;99.90;;;;;;25525718;23;20197;-74
2022/04/24 19:40:17;;;;;;;0.20;0.00;;;16.10;99.90;;;;;;25484908;23;246760;-73
2022/04/24 19:50:21;;;;;;;0.20;0.07;;;16.00;99.90;;;;;;25529785;23;20151;-75
2022/04/24 20:00:27;;;;;;;0.20;0.10;;;15.90;99.90;;;;;;25531703;23;20370;-74
2022/04/24 20:10:31;;;;;;;0.20;0.00;;;15.80;99.90;;;;;;25527664;23;20163;-73
2022/04/24 20:20:37;;;;;;;1.07;1.07;;;15.80;99.90;;;;;;25506279;23;20206;-73
2022/04/24 20:30:43;;;;;;;0.20;0.07;;;15.80;99.90;;;;;;25528338;23;20167;-73
2022/04/24 20:40:48;;;;;;;0.20;0.00;;;15.70;99.90;;;;;;25506305;23;20202;-73
2022/04/24 20:50:52;;;;;;;0.20;0.00;;;15.60;99.90;;;;;;25506520;23;20182;-71
2022/04/24 21:00:57;;;;;;;0.20;0.10;;;15.10;99.90;;;;;;25530476;23;20191;-73
2022/04/24 21:11:01;;;;;;;0.20;0.00;;;15.20;99.90;;;;;;25528906;23;20210;-72
2022/04/24 21:21:07;;;;;;;0.20;0.00;;;14.60;99.90;;;;;;25504845;23;20190;-72
2022/04/24 21:31:10;;;;;;;0.20;0.10;;;14.60;99.90;;;;;;25531356;23;20176;-73
2022/04/24 21:41:16;;;;;;;0.20;0.00;;;14.50;99.90;;;;;;25544370;23;20270;-72
2022/04/24 21:51:20;;;;;;;0.20;0.00;;;14.30;99.90;;;;;;25547272;23;20166;-72
2022/04/24 22:01:26;;;;;;;0.20;0.00;;;14.20;99.90;;;;;;25542498;23;20191;-74
2022/04/24 22:11:30;;;;;;;0.20;0.00;;;14.10;99.90;;;;;;25544448;23;20194;-74
2022/04/24 22:31:56;;;;;;;0.20;0.10;;;13.80;99.90;;;;;;25544070;23;20178;-74
2022/04/24 22:42:02;;;;;;;0.20;0.10;;;13.60;99.90;;;;;;25518420;23;20198;-72
2022/04/24 22:52:12;;;;;;;0.20;0.10;;;13.10;99.90;;;;;;25511339;23;20262;-73
2022/04/24 23:02:17;;;;;;;0.20;0.00;;;13.00;99.90;;;;;;25538570;23;20201;-72
2022/04/24 23:12:21;;;;;;;0.20;0.00;;;12.90;99.90;;;;;;25538797;23;20175;-73
2022/04/24 23:22:26;;;;;;;0.20;0.00;;;13.00;99.90;;;;;;25535332;23;20194;-73
2022/04/24 23:32:30;;;;;;;0.20;0.10;;;13.00;99.90;;;;;;25509910;23;20342;-72
2022/04/24 23:42:38;;;;;;;0.20;0.10;;;13.00;99.90;;;;;;25532423;23;20203;-71
2022/04/24 23:52:42;;;;;;;0.20;0.10;;;12.80;99.90;;;;;;25505536;23;20208;-74
